createdAt,value
2023-04-23T00:02:26.931Z,99588.87
2023-04-23T00:05:30.484Z,99577.66
2023-04-23T00:08:33.120Z,99581.59
2023-04-23T00:11:35.378Z,99588.06
2023-04-23T00:14:37.537Z,99582.13
2023-04-23T00:17:39.612Z,99582.13
2023-04-23T00:20:43.587Z,99582.13
2023-04-23T00:23:45.717Z,99573.69
2023-04-23T00:26:47.629Z,99574.50
2023-04-23T00:29:51.400Z,99568.78
2023-04-23T00:32:53.379Z,99567.81
2023-04-23T00:35:55.674Z,99573.84
2023-04-23T00:38:57.799Z,99574.59
2023-04-23T00:42:02.204Z,99571.19
2023-04-23T00:45:05.994Z,99566.66
2023-04-23T00:48:08.965Z,99568.78
2023-04-23T00:51:11.861Z,99569.00
2023-04-23T00:54:14.408Z,99571.84
2023-04-23T00:57:17.063Z,99568.50
2023-04-23T01:00:20.529Z,99568.72
2023-04-23T01:03:27.564Z,99566.06
2023-04-23T01:06:31.912Z,99559.50
2023-04-23T01:09:34.266Z,99565.19
2023-04-23T01:12:36.543Z,99569.34
2023-04-23T01:15:38.559Z,99559.63
2023-04-23T01:18:41.223Z,99558.87
2023-04-23T01:21:43.374Z,99560.56
2023-04-23T01:24:45.863Z,99563.00
2023-04-23T01:27:48.529Z,99551.06
2023-04-23T01:30:51.447Z,99548.50
2023-04-23T01:33:55.504Z,99540.91
2023-04-23T01:36:59.159Z,99552.50
2023-04-23T01:40:01.204Z,99551.69
2023-04-23T01:43:04.116Z,99550.84
2023-04-23T01:46:06.323Z,99549.78
2023-04-23T01:49:08.854Z,99543.84
2023-04-23T01:52:11.476Z,99536.47
2023-04-23T01:55:14.302Z,99545.03
2023-04-23T01:58:16.258Z,99538.50
2023-04-23T02:01:18.502Z,99539.66
2023-04-23T02:04:21.477Z,99536.34
2023-04-23T02:07:23.550Z,99534.25
2023-04-23T02:10:26.188Z,99531.41
2023-04-23T02:13:28.150Z,99530.97
2023-04-23T02:16:31.256Z,99526.44
2023-04-23T02:19:35.168Z,99536.47
2023-04-23T02:22:39.330Z,99532.00
2023-04-23T02:25:41.353Z,99529.56
2023-04-23T02:28:43.415Z,99532.62
2023-04-23T02:31:45.439Z,99534.00
2023-04-23T02:34:47.364Z,99538.91
2023-04-23T02:37:49.367Z,99526.16
2023-04-23T02:40:51.450Z,99531.44
2023-04-23T02:43:53.911Z,99528.53
2023-04-23T02:46:56.456Z,99539.00
2023-04-23T02:49:59.326Z,99536.56
2023-04-23T02:53:01.458Z,99526.41
2023-04-23T02:56:03.546Z,99521.44
2023-04-23T02:59:06.626Z,99520.06
2023-04-23T03:02:08.819Z,99516.13
2023-04-23T03:05:10.861Z,99521.28
2023-04-23T03:08:12.802Z,99519.81
2023-04-23T03:11:14.717Z,99518.22
2023-04-23T03:14:16.691Z,99515.97
2023-04-23T03:17:18.687Z,99509.22
2023-04-23T03:20:20.742Z,99507.72
2023-04-23T03:23:22.837Z,99510.38
2023-04-23T03:26:24.749Z,99507.91
2023-04-23T03:29:27.385Z,99509.69
2023-04-23T03:32:29.709Z,99509.34
2023-04-23T03:35:31.677Z,99515.47
2023-04-23T03:38:33.622Z,99519.06
2023-04-23T03:41:35.690Z,99525.25
2023-04-23T03:44:37.626Z,99519.59
2023-04-23T03:47:40.512Z,99521.03
2023-04-23T03:50:42.470Z,99513.03
2023-04-23T03:53:45.710Z,99529.78
2023-04-23T03:56:47.652Z,99529.53
2023-04-23T03:59:49.661Z,99528.09
2023-04-23T04:02:51.906Z,99525.84
2023-04-23T04:05:54.194Z,99523.97
2023-04-23T04:08:56.369Z,99519.38
2023-04-23T04:11:58.253Z,99523.59
2023-04-23T04:15:00.408Z,99533.19
2023-04-23T04:18:02.466Z,99526.97
2023-04-23T04:21:04.605Z,99539.28
2023-04-23T04:24:06.729Z,99536.66
2023-04-23T04:27:09.190Z,99540.12
2023-04-23T04:30:11.610Z,99535.53
2023-04-23T04:33:15.172Z,99535.78
2023-04-23T04:36:18.313Z,99540.69
2023-04-23T04:39:20.848Z,99544.47
2023-04-23T04:42:22.828Z,99543.63
2023-04-23T04:45:25.883Z,99548.78
2023-04-23T04:48:27.952Z,99550.09
2023-04-23T04:51:30.476Z,99552.34
2023-04-23T04:54:32.452Z,99561.44
2023-04-23T04:57:34.368Z,99553.78
2023-04-23T05:00:36.630Z,99559.41
2023-04-23T05:03:39.428Z,99563.16
2023-04-23T05:06:41.608Z,99564.34
2023-04-23T05:09:45.091Z,99562.22
2023-04-23T05:12:47.764Z,99572.59
2023-04-23T05:15:49.739Z,99572.09
2023-04-23T05:18:52.234Z,99565.34
2023-04-23T05:21:54.330Z,99566.44
2023-04-23T05:24:56.421Z,99571.94
2023-04-23T05:27:58.405Z,99576.22
2023-04-23T05:31:00.852Z,99574.94
2023-04-23T05:34:03.059Z,99576.63
2023-04-23T05:37:05.988Z,99565.34
2023-04-23T05:40:09.271Z,99567.69
2023-04-23T05:43:12.762Z,99563.28
2023-04-23T05:46:14.722Z,99570.34
2023-04-23T05:49:16.719Z,99568.31
2023-04-23T05:52:19.266Z,99560.91
2023-04-23T05:55:21.857Z,99570.53
2023-04-23T05:58:23.844Z,99571.69
2023-04-23T06:01:25.834Z,99575.25
2023-04-23T06:04:28.117Z,99581.28
2023-04-23T06:07:30.287Z,99581.16
2023-04-23T06:10:32.372Z,99579.00
2023-04-23T06:13:42.849Z,99582.25
2023-04-23T06:16:45.660Z,99589.28
2023-04-23T06:19:47.575Z,99584.28
2023-04-23T06:22:49.561Z,99585.56
2023-04-23T06:25:51.527Z,99592.84
2023-04-23T06:28:53.803Z,99587.25
2023-04-23T06:31:57.004Z,99584.25
2023-04-23T06:35:01.993Z,99589.03
2023-04-23T06:38:04.337Z,99583.06
2023-04-23T06:41:06.823Z,99583.88
2023-04-23T06:44:08.803Z,99586.28
2023-04-23T06:47:10.891Z,99582.50
2023-04-23T06:50:12.939Z,99586.56
2023-04-23T06:53:15.756Z,99584.72
2023-04-23T06:56:17.719Z,99582.72
2023-04-23T06:59:19.915Z,99583.63
2023-04-23T07:02:21.874Z,99577.03
2023-04-23T07:05:24.060Z,99559.44
2023-04-23T07:08:26.337Z,99587.41
2023-04-23T07:11:29.737Z,99578.19
2023-04-23T07:14:32.508Z,99562.66
2023-04-23T07:17:35.119Z,99562.78
2023-04-23T07:20:37.724Z,99551.13
2023-04-23T07:23:39.697Z,99561.13
2023-04-23T07:26:41.573Z,99557.00
2023-04-23T07:29:46.973Z,99554.34
2023-04-23T07:32:49.109Z,99554.97
2023-04-23T07:35:51.190Z,99547.75
2023-04-23T07:38:53.549Z,99545.22
2023-04-23T07:41:56.938Z,99548.34
2023-04-23T07:44:58.964Z,99549.13
2023-04-23T07:48:02.523Z,99547.97
2023-04-23T07:51:04.720Z,99544.34
2023-04-23T07:54:06.829Z,99539.59
2023-04-23T07:57:08.877Z,99544.09
2023-04-23T08:00:11.502Z,99542.47
2023-04-23T08:03:14.492Z,99543.16
2023-04-23T08:06:16.756Z,99535.91
2023-04-23T08:09:18.949Z,99541.88
2023-04-23T08:12:21.504Z,99540.28
2023-04-23T08:15:23.578Z,99541.13
2023-04-23T08:18:25.631Z,99532.44
2023-04-23T08:21:29.024Z,99537.81
2023-04-23T08:24:31.015Z,99535.59
2023-04-23T08:27:32.938Z,99527.59
2023-04-23T08:30:35.631Z,99531.50
2023-04-23T08:33:37.668Z,99529.84
2023-04-23T08:36:40.163Z,99523.59
2023-04-23T08:39:42.411Z,99523.22
2023-04-23T08:42:58.287Z,99527.75
2023-04-23T08:46:06.260Z,99520.31
2023-04-23T08:49:09.231Z,99522.97
2023-04-23T08:52:19.299Z,99517.38
2023-04-23T08:55:22.831Z,99515.47
2023-04-23T08:58:28.077Z,99505.41
2023-04-23T09:01:30.879Z,99508.41
2023-04-23T09:04:34.185Z,99501.16
2023-04-23T09:07:36.758Z,99499.50
2023-04-23T09:10:42.315Z,99501.41
2023-04-23T09:13:44.314Z,99505.66
2023-04-23T09:16:46.466Z,99501.03
2023-04-23T09:19:50.494Z,99489.25
2023-04-23T09:22:52.822Z,99492.94
2023-04-23T09:25:57.207Z,99489.09
2023-04-23T09:28:59.221Z,99479.31
2023-04-23T09:32:09.880Z,99490.91
2023-04-23T09:35:17.055Z,99478.06
2023-04-23T09:38:19.956Z,99487.97
2023-04-23T09:41:23.193Z,99478.03
2023-04-23T09:44:26.615Z,99482.44
2023-04-23T09:47:32.504Z,99479.22
2023-04-23T09:50:41.028Z,99477.25
2023-04-23T09:53:44.223Z,99469.44
2023-04-23T09:56:51.320Z,99477.59
2023-04-23T10:00:03.369Z,99473.44
2023-04-23T10:03:13.714Z,99462.63
2023-04-23T10:06:25.741Z,99465.84
2023-04-23T10:09:38.003Z,99465.66
2023-04-23T10:12:53.594Z,99461.53
2023-04-23T10:16:07.084Z,99447.78
2023-04-23T10:19:19.636Z,99466.06
2023-04-23T10:22:22.797Z,99449.06
2023-04-23T10:25:25.756Z,99447.44
2023-04-23T10:28:32.922Z,99440.16
2023-04-23T10:31:36.985Z,99445.41
2023-04-23T10:34:40.925Z,99446.31
2023-04-23T10:37:44.607Z,99441.19
2023-04-23T10:40:51.106Z,99434.72
2023-04-23T10:43:53.900Z,99426.34
2023-04-23T10:46:58.471Z,99428.81
2023-04-23T10:50:28.450Z,99411.47
2023-04-23T10:53:32.197Z,99426.91
2023-04-23T10:56:34.386Z,99423.53
2023-04-23T10:59:41.504Z,99418.97
2023-04-23T11:02:45.061Z,99416.69
2023-04-23T11:05:47.108Z,99407.00
2023-04-23T11:08:56.675Z,99416.03
2023-04-23T11:12:00.257Z,99397.81
2023-04-23T11:15:16.430Z,99414.16
2023-04-23T11:18:18.558Z,99413.69
2023-04-23T11:21:20.725Z,99410.28
2023-04-23T11:24:24.006Z,99404.56
2023-04-23T11:27:26.158Z,99400.75
2023-04-23T11:30:30.067Z,99399.47
2023-04-23T11:33:32.205Z,99406.44
2023-04-23T11:36:34.739Z,99393.81
2023-04-23T11:39:44.203Z,99392.34
2023-04-23T11:42:47.862Z,99391.13
2023-04-23T11:45:49.803Z,99389.75
2023-04-23T11:48:51.887Z,99389.91
2023-04-23T11:51:54.101Z,99378.75
2023-04-23T11:54:56.359Z,99370.44
2023-04-23T11:57:58.405Z,99362.31
2023-04-23T12:01:00.862Z,99373.75
2023-04-23T12:04:10.587Z,99363.78
2023-04-23T12:07:23.392Z,99350.75
2023-04-23T12:10:28.521Z,99354.97
2023-04-23T12:13:33.811Z,99349.06
2023-04-23T12:16:40.032Z,99354.06
2023-04-23T12:19:44.937Z,99349.53
2023-04-23T12:22:47.311Z,99359.47
2023-04-23T12:25:49.633Z,99337.97
2023-04-23T12:28:53.008Z,99334.56
2023-04-23T12:31:58.802Z,99345.19
2023-04-23T12:35:00.886Z,99335.22
2023-04-23T12:38:23.869Z,99336.03
2023-04-23T12:41:25.853Z,99318.53
2023-04-23T12:44:28.396Z,99321.81
2023-04-23T12:47:30.420Z,99331.25
2023-04-23T12:50:32.501Z,99312.31
2023-04-23T12:53:34.645Z,99309.91
2023-04-23T12:56:37.820Z,99325.53
2023-04-23T12:59:40.271Z,99310.72
2023-04-23T13:02:42.517Z,99302.78
2023-04-23T13:05:45.217Z,99303.19
2023-04-23T13:08:47.386Z,99310.47
2023-04-23T13:11:49.980Z,99302.94
2023-04-23T13:14:52.146Z,99289.75
2023-04-23T13:17:54.180Z,99299.16
2023-04-23T13:20:57.617Z,99294.22
2023-04-23T13:23:59.559Z,99284.97
2023-04-23T13:27:01.951Z,99275.00
2023-04-23T13:30:04.473Z,99286.06
2023-04-23T13:33:06.513Z,99275.00
2023-04-23T13:36:08.923Z,99272.56
2023-04-23T13:39:14.170Z,99265.91
2023-04-23T13:42:16.221Z,99267.09
2023-04-23T13:45:18.339Z,99262.97
2023-04-23T13:48:20.408Z,99250.50
2023-04-23T13:51:34.017Z,99244.09
2023-04-23T13:54:38.328Z,99243.25
2023-04-23T13:57:40.494Z,99241.28
2023-04-23T14:00:43.222Z,99238.16
2023-04-23T14:03:45.542Z,99241.53
2023-04-23T14:06:47.523Z,99228.69
2023-04-23T14:09:52.837Z,99231.13
2023-04-23T14:12:55.901Z,99236.13
2023-04-23T14:15:58.131Z,99235.72
2023-04-23T14:19:00.768Z,99224.91
2023-04-23T14:22:03.746Z,99229.84
2023-04-23T14:25:45.405Z,99225.41
2023-04-23T14:28:51.693Z,99224.50
2023-04-23T14:31:53.983Z,99215.97
2023-04-23T14:34:55.885Z,99211.81
2023-04-23T14:37:58.025Z,99207.94
2023-04-23T14:41:00.592Z,99208.28
2023-04-23T14:44:03.206Z,99209.69
2023-04-23T14:47:08.192Z,99208.37
2023-04-23T14:50:10.819Z,99213.06
2023-04-23T14:53:12.909Z,99207.06
2023-04-23T14:56:15.171Z,99198.88
2023-04-23T14:59:17.792Z,99200.09
2023-04-23T15:02:19.778Z,99207.84
2023-04-23T15:05:22.289Z,99210.31
2023-04-23T15:08:24.461Z,99204.38
2023-04-23T15:11:26.592Z,99196.41
2023-04-23T15:14:33.188Z,99202.47
2023-04-23T15:17:35.232Z,99199.97
2023-04-23T15:20:37.382Z,99198.06
2023-04-23T15:23:41.449Z,99200.87
2023-04-23T15:26:46.061Z,99194.59
2023-04-23T15:29:49.415Z,99195.50
2023-04-23T15:32:52.263Z,99182.88
2023-04-23T15:35:54.211Z,99181.06
2023-04-23T15:38:56.297Z,99180.72
2023-04-23T15:41:58.361Z,99177.09
2023-04-23T15:45:00.462Z,99175.03
2023-04-23T15:48:02.577Z,99181.66
2023-04-23T15:51:04.891Z,99179.19
2023-04-23T15:54:08.834Z,99164.41
2023-04-23T15:57:11.331Z,99168.97
2023-04-23T16:00:13.946Z,99159.62
2023-04-23T16:03:16.209Z,99162.09
2023-04-23T16:06:18.550Z,99152.53
2023-04-23T16:09:20.774Z,99155.34
2023-04-23T16:12:23.099Z,99157.59
2023-04-23T16:15:25.876Z,99151.91
2023-04-23T16:18:27.808Z,99145.59
2023-04-23T16:21:30.455Z,99151.69
2023-04-23T16:24:32.549Z,99147.16
2023-04-23T16:27:34.562Z,99142.03
2023-04-23T16:30:37.065Z,99151.06
2023-04-23T16:33:40.916Z,99137.78
2023-04-23T16:36:43.020Z,99135.22
2023-04-23T16:39:45.463Z,99129.28
2023-04-23T16:42:49.110Z,99134.53
2023-04-23T16:45:51.614Z,99133.88
2023-04-23T16:48:53.641Z,99136.66
2023-04-23T16:51:57.500Z,99133.94
2023-04-23T16:55:00.171Z,99128.34
2023-04-23T16:58:03.276Z,99124.09
2023-04-23T17:01:05.945Z,99128.38
2023-04-23T17:04:08.431Z,99124.06
2023-04-23T17:07:11.044Z,99116.91
2023-04-23T17:10:15.492Z,99119.41
2023-04-23T17:13:18.478Z,99121.16
2023-04-23T17:16:21.407Z,99119.88
2023-04-23T17:19:23.569Z,99108.63
2023-04-23T17:22:26.261Z,99121.94
2023-04-23T17:25:28.703Z,99117.75
2023-04-23T17:28:31.945Z,99112.47
2023-04-23T17:31:36.109Z,99118.63
2023-04-23T17:34:41.077Z,99113.94
2023-04-23T17:37:53.020Z,99120.00
2023-04-23T17:40:55.934Z,99115.72
2023-04-23T17:43:59.780Z,99113.72
2023-04-23T17:47:02.533Z,99119.16
2023-04-23T17:50:10.347Z,99113.84
2023-04-23T17:53:13.536Z,99104.50
2023-04-23T17:56:16.748Z,99111.56
2023-04-23T17:59:19.154Z,99115.63
2023-04-23T18:02:22.075Z,99121.00
2023-04-23T18:05:25.119Z,99107.63
2023-04-23T18:08:28.386Z,99112.72
2023-04-23T18:11:30.713Z,99113.41
2023-04-23T18:14:33.415Z,99112.72
2023-04-23T18:17:36.063Z,99107.75
2023-04-23T18:20:39.701Z,99117.09
2023-04-23T18:23:42.469Z,99104.44
2023-04-23T18:26:46.584Z,99104.78
2023-04-23T18:29:49.069Z,99117.84
2023-04-23T18:33:19.575Z,99117.69
2023-04-23T18:36:31.808Z,99121.53
2023-04-23T18:39:34.332Z,99132.94
2023-04-23T18:42:37.746Z,99127.22
2023-04-23T18:45:40.275Z,99129.75
2023-04-23T18:48:52.481Z,99135.94
2023-04-23T18:51:55.737Z,99136.28
2023-04-23T18:54:58.413Z,99132.97
2023-04-23T18:58:01.194Z,99131.44
2023-04-23T19:01:04.139Z,99137.47
2023-04-23T19:04:07.562Z,99138.97
2023-04-23T19:07:10.524Z,99132.28
2023-04-23T19:10:14.368Z,99131.31
2023-04-23T19:13:17.314Z,99137.66
2023-04-23T19:16:21.078Z,99130.97
2023-04-23T19:19:25.444Z,99139.00
2023-04-23T19:22:28.019Z,99129.31
2023-04-23T19:25:30.689Z,99126.63
2023-04-23T19:28:33.361Z,99124.78
2023-04-23T19:31:36.509Z,99128.25
2023-04-23T19:34:39.045Z,99123.91
2023-04-23T19:37:41.255Z,99124.22
2023-04-23T19:40:44.561Z,99118.03
2023-04-23T19:43:47.264Z,99116.72
2023-04-23T19:46:50.189Z,99113.34
2023-04-23T19:49:52.801Z,99116.91
2023-04-23T19:52:57.819Z,99118.56
2023-04-23T19:56:01.527Z,99115.88
2023-04-23T19:59:04.535Z,99116.91
2023-04-23T20:02:07.341Z,99116.22
2023-04-23T20:05:13.405Z,99116.03
2023-04-23T20:08:26.031Z,99122.72
2023-04-23T20:11:29.083Z,99116.34
2023-04-23T20:14:32.000Z,99122.72
2023-04-23T20:17:34.788Z,99124.37
2023-04-23T20:20:37.605Z,99121.22
2023-04-23T20:23:39.532Z,99119.91
2023-04-23T20:26:42.857Z,99119.69
2023-04-23T20:29:45.416Z,99111.16
2023-04-23T20:32:47.956Z,99104.66
2023-04-23T20:35:51.048Z,99112.50
2023-04-23T20:38:54.791Z,99107.50
2023-04-23T20:41:57.927Z,99115.50
2023-04-23T20:45:00.636Z,99107.97
2023-04-23T20:48:03.730Z,99103.09
2023-04-23T20:51:05.824Z,99102.41
2023-04-23T20:54:07.955Z,99098.84
2023-04-23T20:57:09.938Z,99092.16
2023-04-23T21:00:12.583Z,99091.47
2023-04-23T21:03:14.847Z,99086.31
2023-04-23T21:06:17.493Z,99090.81
2023-04-23T21:09:19.656Z,99085.41
2023-04-23T21:12:21.896Z,99086.03
2023-04-23T21:15:24.368Z,99076.69
2023-04-23T21:18:26.836Z,99084.69
2023-04-23T21:21:30.121Z,99080.19
2023-04-23T21:24:32.003Z,99081.53
2023-04-23T21:27:34.210Z,99078.16
2023-04-23T21:30:51.991Z,99080.81
2023-04-23T21:33:56.893Z,99080.38
2023-04-23T21:36:59.023Z,99070.66
2023-04-23T21:40:01.032Z,99071.84
2023-04-23T21:43:04.168Z,99068.47
2023-04-23T21:46:07.240Z,99070.47
2023-04-23T21:49:09.163Z,99069.94
2023-04-23T21:52:11.446Z,99072.25
2023-04-23T21:55:13.822Z,99065.72
2023-04-23T21:58:17.954Z,99069.69
2023-04-23T22:01:20.435Z,99078.53
2023-04-23T22:04:22.736Z,99070.84
2023-04-23T22:07:26.906Z,99067.19
2023-04-23T22:10:30.987Z,99067.03
2023-04-23T22:13:33.608Z,99069.69
2023-04-23T22:16:35.619Z,99067.25
2023-04-23T22:19:37.716Z,99067.44
2023-04-23T22:22:42.233Z,99065.13
2023-04-23T22:25:44.896Z,99069.38
2023-04-23T22:28:47.004Z,99061.38
2023-04-23T22:31:48.966Z,99059.84
2023-04-23T22:34:52.874Z,99060.00
2023-04-23T22:37:54.936Z,99067.34
2023-04-23T22:40:57.041Z,99062.19
2023-04-23T22:43:58.969Z,99057.88
2023-04-23T22:47:00.941Z,99044.28
2023-04-23T22:50:04.033Z,99045.94
2023-04-23T22:53:06.914Z,99034.09
2023-04-23T22:56:09.061Z,99043.09
2023-04-23T22:59:13.522Z,99037.75
2023-04-23T23:02:15.791Z,99036.09
2023-04-23T23:05:17.897Z,99040.22
2023-04-23T23:08:19.873Z,99025.72
2023-04-23T23:11:22.314Z,99039.69
2023-04-23T23:14:24.732Z,99036.47
2023-04-23T23:17:26.699Z,99031.25
2023-04-23T23:20:28.744Z,99034.50
2023-04-23T23:23:30.973Z,99025.63
2023-04-23T23:26:33.054Z,99030.41
2023-04-23T23:29:35.075Z,99025.41
2023-04-23T23:32:37.370Z,99022.34
2023-04-23T23:35:41.101Z,99018.47
2023-04-23T23:38:43.848Z,99017.94
2023-04-23T23:41:47.157Z,99019.94
2023-04-23T23:44:49.242Z,99021.91
2023-04-23T23:47:51.369Z,99014.22
2023-04-23T23:50:55.175Z,99016.06
2023-04-23T23:53:57.224Z,99010.72
2023-04-23T23:56:59.948Z,99019.94
